Loisir ou Compétition : Rejoignez un Club de la Fédération

Résultats

SAMSE NATIONAL TOUR U17

LES SAISIES

SPR Dames

Jury de Compétition

Délégué Technique :
APPLAGNAT PHILIPPE (MB)
D.T. Adjoint :
CHEVALIER CHRISTOPHE (DA)
Dir. Epreuve :
 
Chef Pas de Tir :
 

Caractéristiques de la Piste

Piste :
 
Distance :
6,0 km
Point Haut :
 
Point Bas :
 
Montée Tot. :
 
Montée Max. :
 
Homologation :
 

Pénalité Appliquée :
90.0000
Coefficient :
 

Catégorie :
U17
Style :
 
Type de Tir :
[C-D]
Clt Dos Clt/Cat Code An Nom Prénom Com Club Temps Pena Tps Tot Ecart Points
Classés
1 79 1/U17 FFS2670359 2002 BENED CHLOE MB CHABLAIS NOR 15:28.6 1-1- - 15:28.6 00:00.0 90.00
2 73 2/U17 FFS2662969 2003 GILBERT JEANSELME LOLA DA CS VILLARD 16:25.4 0-2- - 16:25.4 00:56.8 138.93
3 78 3/U17 FFS2660755 2002 CLOETENS MAYA DA GUC GRENOBLE 16:25.8 0-2- - 16:25.8 00:57.2 139.28
4 108 4/U17 FFS2670903 2002 CROS JEANNE MB SC GD BORNAN 16:26.8 1-0- - 16:26.8 00:58.2 140.14
5 72 5/U17 FFS2665303 2002 MICHELON OCEANE SA BAUGES S.N 16:30.0 0-3- - 16:30.0 01:01.4 142.90
6 76 6/U17 FFS2654873 2002 GROSSET BOURBANGE LINA MB CS MEGEVE 16:30.6 1-1- - 16:30.6 01:02.0 143.41
7 84 7/U17 FFS2657180 2002 SIBERCHICOT LISA MJ PREMANON SC 16:34.4 1-0- - 16:34.4 01:05.8 146.69
8 86 8/U17 FFS2677081 2002 JEANNIER LEONIE MJ SC VERRIERES 16:36.7 1-2- - 16:36.7 01:08.1 148.67
9 106 9/U17 FFS2671450 2002 SYLVESTRE BARON CLAIRE MB SCNP ROCHOIS 16:44.4 2-0- - 16:44.4 01:15.8 155.30
10 93 10/U17 FFS2655903 2002 BERTRAND FANY SA CS MERIBEL 16:46.7 1-2- - 16:46.7 01:18.1 157.28
11 99 11/U17 FFS2652071 2002 RICHARD JEANNE MB LES GETS S.C 17:05.9 1-4- - 17:05.9 01:37.3 173.83
12 83 12/U17 FFS2676115 2003 MAUGAIN FLAVIE MJ ES SAUGETTE 17:13.3 0-2- - 17:13.3 01:44.7 180.20
13 89 13/U17 FFS2660923 2003 BESSIERE ELISE DA SNB CHAMROUS 17:15.0 0-3- - 17:15.0 01:46.4 181.66
13 91 13/U17 FFS2676811 2003 BAVEREL LOANE MJ ES SAUGETTE 17:15.0 3-0- - 17:15.0 01:46.4 181.66
15 105 15/U17 FFS2680651 2002 SERRETTE LISA MJ PREMANON SC 17:16.7 0-3- - 17:16.7 01:48.1 183.13
16 87 16/U17 FFS2669529 2002 MOUGIN THEA MJ SC GRANDVAUX 17:17.0 2-3- - 17:17.0 01:48.4 183.39
17 98 17/U17 FFS2661517 2002 LAUTH EVA DA VERCORS SKF 17:21.8 0-2- - 17:21.8 01:53.2 187.52
18 94 18/U17 FFS2664568 2002 TRIBOULOT JEANNE MV BASS/RUPT SN 17:31.8 1-2- - 17:31.8 02:03.2 196.14
19 103 19/U17 FFS2676609 2002 CAT LENA MJ SC MONT NOIR 17:32.2 0-3- - 17:32.2 02:03.6 196.48
20 95 20/U17 FFS2671448 2002 PATUREL DORINE MB SCNP ROCHOIS 17:34.6 2-3- - 17:34.6 02:06.0 198.55
21 100 21/U17 FFS2661232 2002 JEANGEORGES ANAIS MV BASS/RUPT SN 17:48.9 1-1- - 17:48.9 02:20.3 210.87
22 107 22/U17 FFS2664314 2002 BARON FIONA MJ VAL MORTEAU 17:51.0 0-3- - 17:51.0 02:22.4 212.68
23 110 23/U17 FFS2681102 2003 BLANC ANNA MJ SC ABBAYE 17:54.6 0-3- - 17:54.6 02:26.0 215.78
24 96 24/U17 FFS2654837 2002 CHARVOLIN CANDICE LY SC BRENOD 17:58.7 1-2- - 17:58.7 02:30.1 219.31
25 81 25/U17 FFS2664469 2003 MARCINIAK JULIE MB CS MEGEVE 17:59.9 1-4- - 17:59.9 02:31.3 220.35
26 101 26/U17 FFS2649489 2002 GAILLARD MARGAUX DA SA MEAUDRAIS 18:01.5 0-3- - 18:01.5 02:32.9 221.73
27 74 27/U17 FFS2675560 2002 CHOUARD JULIETTE MJ SC GRANDVAUX 18:03.0 3-1- - 18:03.0 02:34.4 223.02
27 102 27/U17 FFS2660687 2002 GRUNEWALD ELEONORE DA VERCORS SKF 18:03.0 4-2- - 18:03.0 02:34.4 223.02
29 80 29/U17 FFS2675691 2003 LEBAY CAROLINE MB PRAZ LYS-SOM 18:05.6 3-1- - 18:05.6 02:37.0 225.26
30 126 30/U17 FFS2660383 2003 MACHUT PAULINE LY SC LE POIZAT 18:06.4 3-1- - 18:06.4 02:37.8 225.95
31 121 31/U17 FFS2683910 2003 COURVOISIER LEA MJ SC MONT NOIR 18:07.2 1-2- - 18:07.2 02:38.6 226.64
32 71 32/U17 FFS2676469 2003 BONY VIOLETTE MB DRAGONS ANNY 18:08.7 2-3- - 18:08.7 02:40.1 227.93
33 120 33/U17 FFS2681114 2003 HUYGHE LOU MJ SC ABBAYE 18:13.2 2-2- - 18:13.2 02:44.6 231.80
34 82 34/U17 FFS2675771 2003 DUPONT CHLOE MB DRAGONS ANNY 18:16.0 1-3- - 18:16.0 02:47.4 234.22
35 117 35/U17 FFS2670449 2003 BROUTIER AMELIE SA BAUGES S.N 18:19.7 0-1- - 18:19.7 02:51.1 237.40
36 119 36/U17 FFS2675805 2002 BESANCON ALICE MJ OLYMP MT DOR 18:27.9 2-1- - 18:27.9 02:59.3 244.47
37 90 37/U17 FFS2682651 2002 MORRAL FERANDIS MARIONA PE SC FTROMEUP2 18:47.3 1-3- - 18:47.3 03:18.7 261.18
38 113 38/U17 FFS2670453 2003 LANCHAIS MANON SA CS LA FECLAZ 18:48.3 0-3- - 18:48.3 03:19.7 262.04
39 109 39/U17 FFS2654839 2002 GREAU ALIZEE LY SC BRENOD 18:49.2 5-1- - 18:49.2 03:20.6 262.82
40 88 40/U17 FFS2677085 2003 PELLEGRINI LILLY MJ OYE-PALLET 18:52.8 1-4- - 18:52.8 03:24.2 265.92
41 77 41/U17 FFS2669082 2002 ELOY LILOU SA COURCHEVEL 18:58.0 3-2- - 18:58.0 03:29.4 270.40
42 111 42/U17 FFS2666106 2002 VIGNEAU LUCIE MB CHABLAIS NOR 19:09.8 0-2- - 19:09.8 03:41.2 280.57
43 122 43/U17 FFS2670595 2003 COURTIEU MARGOT SA CS LA FECLAZ 19:12.8 2-2- - 19:12.8 03:44.2 283.15
44 104 44/U17 FFS2671188 2002 PELLEGRINI AUGUSTINE MJ OYE-PALLET 19:17.1 2-5- - 19:17.1 03:48.5 286.86
45 85 45/U17 FFS2654373 2003 LAMBERT TALIA SA CS MERIBEL 19:19.3 4-2- - 19:19.3 03:50.7 288.75
46 115 46/U17 FFS2655269 2002 GELDHOF LAURANNE DA SN CHARTROUS 19:21.0 1-2- - 19:21.0 03:52.4 290.22
47 75 47/U17 FFS2670580 2003 BESSON LEONIE AP AS EDELWEISS 19:31.5 1-4- - 19:31.5 04:02.9 299.26
48 123 48/U17 FFS2666103 2003 GERARD GESLIN MAILYS SA SC ARECHES 19:49.7 2-3- - 19:49.7 04:21.1 314.94
49 125 49/U17 FFS2654667 2002 ANDREANI LUCILE DA CO 7 LAUX GR 19:56.7 1-3- - 19:56.7 04:28.1 320.97
50 124 50/U17 FFS2681355 2003 BAZARD LEANA DA SN CHARTROUS 19:58.4 1-1- - 19:58.4 04:29.8 322.44
51 114 51/U17 FFS2670594 2003 CAVORET LILOU SA CS LA FECLAZ 20:01.5 2-1- - 20:01.5 04:32.9 325.11
52 97 52/U17 FFS2665498 2002 ROCHE LUDMILLA AP AS EDELWEISS 20:02.0 2-3- - 20:02.0 04:33.4 325.54
53 92 53/U17 FFS2666812 2002 TAFFIN NINA SA SC PEISEY VA 20:22.5 4-4- - 20:22.5 04:53.9 343.20
54 129 54/U17 FFS2670317 2003 GRAILLOT BUNING HANNA MV MOLSHEIM SN 20:47.0 3-4- - 20:47.0 05:18.4 364.31
55 128 55/U17 FFS2652961 2003 MILLET SOLENE MJ SMBM/MORBIER 21:13.8 3-4- - 21:13.8 05:45.2 387.39
56 127 56/U17 FFS2683259 2003 ARDIET ELEONORE MJ A.S MOUTHE 21:16.2 5-3- - 21:16.2 05:47.6 389.46
57 118 57/U17 FFS2676087 2003 CHAUSSIN THYLANE MB CS CHAMONIX 21:51.4 1-5- - 21:51.4 06:22.8 419.79
58 112 58/U17 FFS2676089 2003 MAURY LISON MB CS CHAMONIX 22:15.9 4-3- - 22:15.9 06:47.3 440.89
59 116 59/U17 FFS2655092 2003 FERRER EVA LUNA MB VILLARD/BOEG 22:24.1 3-5- - 22:24.1 06:55.5 447.96